Time;durP1;ratioP1;P1;durP2;ratioP2;P2;SDS_P1;SDS_P2;PMS_P1;PMS_P2;Temp;Humidity;BMP_temperature;BMP_pressure;BME280_temperature;BME280_humidity;BME280_pressure;Samples;Min_cycle;Max_cycle;Signal;HPM_P1;HPM_P2
2022/06/24 00:01:42;;;;;;;;;;;;;;;;;;5107286;28;1285;-77
2022/06/24 00:04:08;;;;;;;;;;;;;;;;;;5105385;27;2000;-77
2022/06/24 00:06:43;;;;;;;;;;;;;;;;;;5107589;28;1147;-79
2022/06/24 00:09:10;;;;;;;;;;;;;;;;;;5106004;28;1292;-78
2022/06/24 00:11:35;;;;;;;;;;;;;;;;;;5105635;28;1127;-78
2022/06/24 00:14:05;;;;;;;;;;;;;;;;;;5103166;28;1206;-77
2022/06/24 00:16:30;;;;;;;;;;;;;;;;;;5105678;28;1197;-77
2022/06/24 00:19:09;;;;;;;;;;;;;;;;;;5105989;28;1356;-78
2022/06/24 00:21:34;;;;;;;;;;;;;;;;;;5116891;27;1336;-78
2022/06/24 00:24:00;;;;;;;;;;;;;;;;;;5107691;28;1925;-78
2022/06/24 00:26:40;;;;;;;;;;;;;;;;;;5099634;27;1285;-77
2022/06/24 00:29:06;;;;;;;;;;;;;;;;;;5106823;27;1453;-78
2022/06/24 00:31:31;;;;;;;;;;;;;;;;;;5108242;27;1173;-78
2022/06/24 00:33:56;;;;;;;;;;;;;;;;;;5089802;28;1306;-78
2022/06/24 00:36:22;;;;;;;;;;;;;;;;;;5107558;28;1183;-78
2022/06/24 00:38:51;;;;;;;;;;;;;;;;;;5105146;27;1468;-78
2022/06/24 00:41:22;;;;;;;;;;;;;;;;;;5120839;27;1154;-77
2022/06/24 00:43:50;;;;;;;;;;;;;;;;;;5123159;27;1979;-77
2022/06/24 00:46:17;;;;;;;;;;;;;;;;;;5126754;27;1247;-78
2022/06/24 00:48:49;;;;;;;;;;;;;;;;;;5105583;27;1040;-77
2022/06/24 00:51:15;;;;;;;;;;;;;;;;;;5106639;28;1163;-78
2022/06/24 00:53:45;;;;;;;;;;;;;;;;;;5103345;28;1207;-78
2022/06/24 00:56:15;;;;;;;;;;;;;;;;;;5107136;28;1238;-78
2022/06/24 00:58:49;;;;;;;;;;;;;;;;;;5101209;27;1160;-77
2022/06/24 01:01:14;;;;;;;;;;;;;;;;;;5110803;27;1100;-77
2022/06/24 01:03:40;;;;;;;;;;;;;;;;;;5108439;27;1994;-78
2022/06/24 01:06:06;;;;;;;;;;;;;;;;;;5119625;27;1219;-78
2022/06/24 01:08:31;;;;;;;;;;;;;;;;;;5105507;27;1209;-79
2022/06/24 01:10:57;;;;;;;;;;;;;;;;;;5126052;27;1204;-79
2022/06/24 01:13:23;;;;;;;;;;;;;;;;;;5115843;27;1194;-79
2022/06/24 01:15:48;;;;;;;;;;;;;;;;;;5105326;28;1156;-79
2022/06/24 01:18:13;;;;;;;;;;;;;;;;;;5121726;27;1205;-79
2022/06/24 01:20:39;;;;;;;;;;;;;;;;;;5087881;27;1217;-78
2022/06/24 01:23:04;;;;;;;;;;;;;;;;;;5106600;28;1206;-78
2022/06/24 01:25:31;;;;;;;;;;;;;;;;;;5105252;28;1985;-78
2022/06/24 01:27:57;;;;;;;;;;;;;;;;;;5115272;27;1379;-78
2022/06/24 01:30:26;;;;;;;;;;;;;;;;;;5127121;27;1186;-78
2022/06/24 01:32:51;;;;;;;;;;;;;;;;;;5126431;27;1091;-79
2022/06/24 01:35:17;;;;;;;;;;;;;;;;;;5127658;27;1187;-80
2022/06/24 01:37:42;;;;;;;;;;;;;;;;;;5121272;27;1304;-79
2022/06/24 01:40:08;;;;;;;;;;;;;;;;;;5126838;27;1197;-80
2022/06/24 01:42:35;;;;;;;;;;;;;;;;;;5104038;27;1205;-79
2022/06/24 01:45:01;;;;;;;;;;;;;;;;;;5116082;27;1959;-79
2022/06/24 01:47:27;;;;;;;;;;;;;;;;;;5091148;28;1191;-79
2022/06/24 01:49:52;;;;;;;;;;;;;;;;;;5103663;28;1191;-79
2022/06/24 01:52:17;;;;;;;;;;;;;;;;;;5085679;28;1340;-79
2022/06/24 01:54:43;;;;;;;;;;;;;;;;;;5110828;27;1277;-79
2022/06/24 01:57:08;;;;;;;;;;;;;;;;;;5105045;28;1254;-79
2022/06/24 01:59:33;;;;;;;;;;;;;;;;;;5080987;28;1391;-81
2022/06/24 02:01:59;;;;;;;;;;;;;;;;;;5104302;28;1205;-80
2022/06/24 02:04:24;;;;;;;;;;;;;;;;;;5107955;27;1889;-79
2022/06/24 02:06:49;;;;;;;;;;;;;;;;;;5125732;27;1112;-79
2022/06/24 02:09:17;;;;;;;;;;;;;;;;;;5124515;27;1223;-79
2022/06/24 02:14:28;;;;;;;;;;;;;;;;;;5121754;27;1031;-79
2022/06/24 02:16:54;;;;;;;;;;;;;;;;;;5124540;27;1288;-79
2022/06/24 02:19:19;;;;;;;;;;;;;;;;;;5106234;27;1268;-79
2022/06/24 02:21:44;;;;;;;;;;;;;;;;;;5124122;27;1126;-79
2022/06/24 02:24:13;;;;;;;;;;;;;;;;;;5106314;27;1894;-79
2022/06/24 02:26:38;;;;;;;;;;;;;;;;;;5124077;27;1338;-78
2022/06/24 02:29:03;;;;;;;;;;;;;;;;;;5122210;27;1323;-80
2022/06/24 02:31:29;;;;;;;;;;;;;;;;;;5107403;27;1513;-79
2022/06/24 02:33:55;;;;;;;;;;;;;;;;;;5122222;27;1202;-79
2022/06/24 02:36:20;;;;;;;;;;;;;;;;;;5093500;28;1221;-79
2022/06/24 02:38:45;;;;;;;;;;;;;;;;;;5101768;28;1272;-79
2022/06/24 02:41:11;;;;;;;;;;;;;;;;;;5104606;28;1179;-79
2022/06/24 02:43:37;;;;;;;;;;;;;;;;;;5118232;27;1905;-78
2022/06/24 02:46:03;;;;;;;;;;;;;;;;;;5127816;27;1300;-79
2022/06/24 02:48:30;;;;;;;;;;;;;;;;;;5110103;27;1438;-80
2022/06/24 02:50:57;;;;;;;;;;;;;;;;;;5110038;27;1184;-79
2022/06/24 02:53:23;;;;;;;;;;;;;;;;;;5126418;27;1218;-78
2022/06/24 02:55:49;;;;;;;;;;;;;;;;;;5108635;27;1297;-79
2022/06/24 02:58:15;;;;;;;;;;;;;;;;;;5117675;27;1149;-80
2022/06/24 03:00:43;;;;;;;;;;;;;;;;;;5106665;27;1128;-79
2022/06/24 03:03:10;;;;;;;;;;;;;;;;;;5109364;27;1139;-79
2022/06/24 03:05:35;;;;;;;;;;;;;;;;;;5123502;27;1957;-79
2022/06/24 03:08:01;;;;;;;;;;;;;;;;;;5120032;27;1370;-80
2022/06/24 03:10:26;;;;;;;;;;;;;;;;;;5125627;27;1139;-79
2022/06/24 03:12:51;;;;;;;;;;;;;;;;;;5123499;27;1194;-80
2022/06/24 03:15:17;;;;;;;;;;;;;;;;;;5145354;27;1213;-81
2022/06/24 03:17:42;;;;;;;;;;;;;;;;;;5106081;27;1187;-81
2022/06/24 03:20:08;;;;;;;;;;;;;;;;;;5109829;27;1261;-81
2022/06/24 03:22:35;;;;;;;;;;;;;;;;;;5126454;27;1355;-80
2022/06/24 03:25:01;;;;;;;;;;;;;;;;;;5129721;27;1885;-81
2022/06/24 03:27:27;;;;;;;;;;;;;;;;;;5108754;27;1205;-81
2022/06/24 03:29:52;;;;;;;;;;;;;;;;;;5114550;27;1159;-81
2022/06/24 03:32:24;;;;;;;;;;;;;;;;;;5115914;27;1294;-79
2022/06/24 03:34:49;;;;;;;;;;;;;;;;;;5139705;27;1151;-80
2022/06/24 03:37:23;;;;;;;;;;;;;;;;;;5129273;27;1300;-80
2022/06/24 03:39:49;;;;;;;;;;;;;;;;;;5141096;27;1150;-80
2022/06/24 03:42:14;;;;;;;;;;;;;;;;;;5107039;27;1266;-80
2022/06/24 03:44:39;;;;;;;;;;;;;;;;;;5145381;27;1917;-81
2022/06/24 03:47:05;;;;;;;;;;;;;;;;;;5116407;27;1348;-80
2022/06/24 03:49:30;;;;;;;;;;;;;;;;;;5110297;27;1286;-81
2022/06/24 03:51:55;;;;;;;;;;;;;;;;;;5114002;27;1217;-81
2022/06/24 03:54:21;;;;;;;;;;;;;;;;;;5124098;27;1300;-81
2022/06/24 03:56:46;;;;;;;;;;;;;;;;;;5131512;27;1174;-81
2022/06/24 03:59:11;;;;;;;;;;;;;;;;;;5114201;27;1139;-81
2022/06/24 04:01:38;;;;;;;;;;;;;;;;;;5092696;27;1210;-80
2022/06/24 04:04:03;;;;;;;;;;;;;;;;;;5092464;27;1905;-81
2022/06/24 04:06:28;;;;;;;;;;;;;;;;;;5100667;27;1337;-80
2022/06/24 04:08:55;;;;;;;;;;;;;;;;;;5110831;27;1151;-80
2022/06/24 04:11:20;;;;;;;;;;;;;;;;;;5117353;27;1124;-82
2022/06/24 04:13:46;;;;;;;;;;;;;;;;;;5124354;27;1047;-81
2022/06/24 04:16:11;;;;;;;;;;;;;;;;;;5129775;27;1206;-81
2022/06/24 04:18:41;;;;;;;;;;;;;;;;;;5116346;27;1174;-81
2022/06/24 04:21:14;;;;;;;;;;;;;;;;;;5113520;27;1371;-81
2022/06/24 04:23:43;;;;;;;;;;;;;;;;;;5123823;27;1960;-80
2022/06/24 04:26:09;;;;;;;;;;;;;;;;;;5111511;27;1285;-80
2022/06/24 04:28:34;;;;;;;;;;;;;;;;;;5116770;27;1259;-81
2022/06/24 04:31:00;;;;;;;;;;;;;;;;;;5120992;27;1218;-80
2022/06/24 04:33:25;;;;;;;;;;;;;;;;;;5115762;27;1281;-80
2022/06/24 04:35:50;;;;;;;;;;;;;;;;;;5091473;27;1208;-80
2022/06/24 04:38:16;;;;;;;;;;;;;;;;;;5095256;27;1199;-80
2022/06/24 04:40:42;;;;;;;;;;;;;;;;;;5113946;27;1261;-79
2022/06/24 04:43:08;;;;;;;;;;;;;;;;;;5103326;27;1427;-80
2022/06/24 04:45:33;;;;;;;;;;;;;;;;;;5089308;28;1905;-80
2022/06/24 04:47:59;;;;;;;;;;;;;;;;;;5105002;28;1306;-80
2022/06/24 04:50:24;;;;;;;;;;;;;;;;;;5107794;27;1197;-80
2022/06/24 04:52:49;;;;;;;;;;;;;;;;;;5122277;27;1277;-79
2022/06/24 04:55:14;;;;;;;;;;;;;;;;;;5102227;28;1248;-81
2022/06/24 04:57:40;;;;;;;;;;;;;;;;;;5090379;27;1245;-78
2022/06/24 05:00:09;;;;;;;;;;;;;;;;;;5125066;27;1306;-80
2022/06/24 05:02:35;;;;;;;;;;;;;;;;;;5087112;27;1237;-80
2022/06/24 05:05:01;;;;;;;;;;;;;;;;;;5118573;27;1948;-79
2022/06/24 05:07:26;;;;;;;;;;;;;;;;;;5128476;27;1324;-79
2022/06/24 05:09:51;;;;;;;;;;;;;;;;;;5111506;27;1289;-79
2022/06/24 05:12:20;;;;;;;;;;;;;;;;;;5104952;27;1335;-82
2022/06/24 05:14:46;;;;;;;;;;;;;;;;;;5112402;27;1243;-82
2022/06/24 05:17:12;;;;;;;;;;;;;;;;;;5118618;27;1285;-82
2022/06/24 05:19:37;;;;;;;;;;;;;;;;;;5106678;27;1230;-79
2022/06/24 05:22:03;;;;;;;;;;;;;;;;;;5122842;27;1315;-80
2022/06/24 05:24:28;;;;;;;;;;;;;;;;;;5109125;28;1947;-79
2022/06/24 05:26:53;;;;;;;;;;;;;;;;;;5090771;28;1328;-79
2022/06/24 05:29:19;;;;;;;;;;;;;;;;;;5102950;28;1115;-79
2022/06/24 05:31:45;;;;;;;;;;;;;;;;;;5108656;28;1167;-79
2022/06/24 05:34:11;;;;;;;;;;;;;;;;;;5106616;28;1110;-80
2022/06/24 05:36:36;;;;;;;;;;;;;;;;;;5088987;28;1239;-79
2022/06/24 05:39:03;;;;;;;;;;;;;;;;;;5100633;28;1312;-79
2022/06/24 05:41:28;;;;;;;;;;;;;;;;;;5107858;28;1304;-80
2022/06/24 05:43:54;;;;;;;;;;;;;;;;;;5115137;27;1914;-80
2022/06/24 05:46:19;;;;;;;;;;;;;;;;;;5129712;27;1194;-80
2022/06/24 05:48:48;;;;;;;;;;;;;;;;;;5117768;27;1279;-80
2022/06/24 05:51:15;;;;;;;;;;;;;;;;;;5108174;28;1225;-80
2022/06/24 05:56:26;;;;;;;;;;;;;;;;;;5108451;27;996;-80
2022/06/24 05:58:55;;;;;;;;;;;;;;;;;;5101519;28;1132;-78
2022/06/24 06:01:20;;;;;;;;;;;;;;;;;;5089114;28;1217;-80
2022/06/24 06:03:52;;;;;;;;;;;;;;;;;;5104931;28;1952;-78
2022/06/24 06:06:17;;;;;;;;;;;;;;;;;;5107619;28;1272;-79
2022/06/24 06:08:42;;;;;;;;;;;;;;;;;;5105791;28;1289;-80
2022/06/24 06:11:14;;;;;;;;;;;;;;;;;;5085167;28;1253;-79
2022/06/24 06:13:41;;;;;;;;;;;;;;;;;;5109082;27;1231;-80
2022/06/24 06:16:06;;;;;;;;;;;;;;;;;;5126343;27;1056;-79
2022/06/24 06:18:31;;;;;;;;;;;;;;;;;;5126746;27;1147;-79
2022/06/24 06:21:03;;;;;;;;;;;;;;;;;;5107939;27;1236;-79
2022/06/24 06:23:28;;;;;;;;;;;;;;;;;;5124796;27;1236;-80
2022/06/24 06:25:58;;;;;;;;;;;;;;;;;;5123777;27;1949;-78
2022/06/24 06:28:23;;;;;;;;;;;;;;;;;;5123781;27;1222;-78
2022/06/24 06:30:49;;;;;;;;;;;;;;;;;;5108692;27;1177;-79
2022/06/24 06:33:14;;;;;;;;;;;;;;;;;;5125774;27;1134;-78
2022/06/24 06:35:39;;;;;;;;;;;;;;;;;;5095522;28;1217;-79
2022/06/24 06:38:05;;;;;;;;;;;;;;;;;;5084432;28;1216;-79
2022/06/24 06:40:33;;;;;;;;;;;;;;;;;;5106495;28;1334;-78
2022/06/24 06:43:00;;;;;;;;;;;;;;;;;;5106667;28;1377;-79
2022/06/24 06:45:26;;;;;;;;;;;;;;;;;;5126089;27;1972;-79
2022/06/24 06:47:51;;;;;;;;;;;;;;;;;;5091236;27;1243;-78
2022/06/24 06:50:17;;;;;;;;;;;;;;;;;;5091168;28;1439;-79
2022/06/24 06:52:42;;;;;;;;;;;;;;;;;;5109505;28;1284;-79
2022/06/24 06:55:08;;;;;;;;;;;;;;;;;;5088242;28;1274;-79
2022/06/24 06:57:33;;;;;;;;;;;;;;;;;;5108176;28;1160;-79
2022/06/24 06:59:58;;;;;;;;;;;;;;;;;;5122457;27;1147;-79
2022/06/24 07:02:23;;;;;;;;;;;;;;;;;;5129472;27;1171;-78
2022/06/24 07:04:49;;;;;;;;;;;;;;;;;;5130020;27;1893;-79
2022/06/24 07:07:14;;;;;;;;;;;;;;;;;;5136616;27;1124;-80
2022/06/24 07:09:39;;;;;;;;;;;;;;;;;;5132226;27;1379;-78
2022/06/24 07:12:05;;;;;;;;;;;;;;;;;;5131805;27;1328;-79
2022/06/24 07:14:30;;;;;;;;;;;;;;;;;;5111209;27;1360;-79
2022/06/24 07:16:56;;;;;;;;;;;;;;;;;;5111961;27;1245;-78
2022/06/24 07:19:21;;;;;;;;;;;;;;;;;;5092413;27;1311;-78
2022/06/24 07:21:46;;;;;;;;;;;;;;;;;;5130692;27;1250;-79
2022/06/24 07:24:11;;;;;;;;;;;;;;;;;;5092424;27;1920;-78
2022/06/24 07:26:37;;;;;;;;;;;;;;;;;;5114159;27;1253;-80
2022/06/24 07:29:03;;;;;;;;;;;;;;;;;;5109105;27;1347;-79
2022/06/24 07:31:28;;;;;;;;;;;;;;;;;;5093314;28;1395;-79
2022/06/24 07:33:55;;;;;;;;;;;;;;;;;;5104813;27;1266;-79
2022/06/24 07:36:20;;;;;;;;;;;;;;;;;;5112124;27;1150;-79
2022/06/24 07:38:46;;;;;;;;;;;;;;;;;;5110899;27;952;-79
2022/06/24 07:41:11;;;;;;;;;;;;;;;;;;5111141;27;1258;-79
2022/06/24 07:43:37;;;;;;;;;;;;;;;;;;5090091;27;1271;-80
2022/06/24 07:46:02;;;;;;;;;;;;;;;;;;5107765;27;1997;-79
2022/06/24 07:48:28;;;;;;;;;;;;;;;;;;5110638;27;1244;-80
2022/06/24 07:50:53;;;;;;;;;;;;;;;;;;5095270;27;1215;-79
2022/06/24 07:53:18;;;;;;;;;;;;;;;;;;5094176;27;1326;-79
2022/06/24 07:58:27;;;;;;;;;;;;;;;;;;5125393;27;1269;-79
2022/06/24 08:00:53;;;;;;;;;;;;;;;;;;5144481;27;1210;-77
2022/06/24 08:03:18;;;;;;;;;;;;;;;;;;5122578;27;1092;-79
2022/06/24 08:05:43;;;;;;;;;;;;;;;;;;5108446;27;1954;-79
2022/06/24 08:08:09;;;;;;;;;;;;;;;;;;5121815;27;1218;-79
2022/06/24 08:10:35;;;;;;;;;;;;;;;;;;5146998;27;1175;-79
2022/06/24 08:13:00;;;;;;;;;;;;;;;;;;5112235;27;1205;-77
2022/06/24 08:15:25;;;;;;;;;;;;;;;;;;5128433;27;1323;-79
2022/06/24 08:17:51;;;;;;;;;;;;;;;;;;5133582;27;1217;-81
2022/06/24 08:20:16;;;;;;;;;;;;;;;;;;5113091;27;1312;-83
2022/06/24 08:22:41;;;;;;;;;;;;;;;;;;5132338;27;1293;-79
2022/06/24 08:25:10;;;;;;;;;;;;;;;;;;5130651;27;1940;-77
2022/06/24 08:27:35;;;;;;;;;;;;;;;;;;5130994;27;1319;-78
2022/06/24 08:30:03;;;;;;;;;;;;;;;;;;5127767;27;1458;-77
2022/06/24 08:32:29;;;;;;;;;;;;;;;;;;5129592;27;1107;-80
2022/06/24 08:34:54;;;;;;;;;;;;;;;;;;5113556;27;1218;-81
2022/06/24 08:37:19;;;;;;;;;;;;;;;;;;5113689;27;1186;-80
2022/06/24 08:39:45;;;;;;;;;;;;;;;;;;5149277;27;1198;-78
2022/06/24 08:42:13;;;;;;;;;;;;;;;;;;5129490;27;1191;-79
2022/06/24 08:44:39;;;;;;;;;;;;;;;;;;5142023;27;1980;-79
2022/06/24 08:47:06;;;;;;;;;;;;;;;;;;5122449;27;1222;-79
2022/06/24 08:49:32;;;;;;;;;;;;;;;;;;5108799;27;1088;-80
2022/06/24 08:51:59;;;;;;;;;;;;;;;;;;5109765;27;1218;-78
2022/06/24 08:54:27;;;;;;;;;;;;;;;;;;5088391;27;1286;-80
2022/06/24 08:56:52;;;;;;;;;;;;;;;;;;5109182;27;1392;-79
2022/06/24 08:59:18;;;;;;;;;;;;;;;;;;5110902;27;1163;-78
2022/06/24 09:01:43;;;;;;;;;;;;;;;;;;5113570;27;1174;-79
2022/06/24 09:04:09;;;;;;;;;;;;;;;;;;5147268;27;1950;-78
2022/06/24 09:06:36;;;;;;;;;;;;;;;;;;5124463;27;1221;-79
2022/06/24 09:09:02;;;;;;;;;;;;;;;;;;5147143;27;1179;-78
2022/06/24 09:11:35;;;;;;;;;;;;;;;;;;5109632;27;1139;-79
2022/06/24 09:14:00;;;;;;;;;;;;;;;;;;5100924;27;1293;-78
2022/06/24 09:16:25;;;;;;;;;;;;;;;;;;5092151;27;1282;-78
2022/06/24 09:18:51;;;;;;;;;;;;;;;;;;5128050;27;766;-78
2022/06/24 09:21:22;;;;;;;;;;;;;;;;;;5108672;27;1575;-78
2022/06/24 09:23:52;;;;;;;;;;;;;;;;;;5127117;27;1952;-78
2022/06/24 09:26:20;;;;;;;;;;;;;;;;;;5128522;27;805;-79
2022/06/24 09:28:58;;;;;;;;;;;;;;;;;;;;;
2022/06/24 09:31:24;;;;;;;;;;;;;;;;;;5127227;27;574;-78
2022/06/24 09:33:49;;;;;;;;;;;;;;;;;;5107674;27;886;-78
2022/06/24 09:36:16;;;;;;;;;;;;;;;;;;5108367;27;1293;-79
2022/06/24 09:38:52;;;;;;;;;;;;;;;;;;5108143;27;1317;-79
2022/06/24 09:41:17;;;;;;;;;;;;;;;;;;5107643;27;1356;-79
2022/06/24 09:43:42;;;;;;;;;;;;;;;;;;5123050;27;1159;-78
2022/06/24 09:46:15;;;;;;;;;;;;;;;;;;5125323;27;1897;-78
2022/06/24 09:48:40;;;;;;;;;;;;;;;;;;5108416;27;1301;-78
2022/06/24 09:51:07;;;;;;;;;;;;;;;;;;5091562;27;1199;-77
2022/06/24 09:53:35;;;;;;;;;;;;;;;;;;5106532;27;1136;-79
2022/06/24 09:56:01;;;;;;;;;;;;;;;;;;5108271;27;1296;-79
2022/06/24 09:58:26;;;;;;;;;;;;;;;;;;5085146;27;1255;-79
2022/06/24 10:00:51;;;;;;;;;;;;;;;;;;5086392;27;1313;-78
2022/06/24 10:03:17;;;;;;;;;;;;;;;;;;5105842;27;1215;-79
2022/06/24 10:05:47;;;;;;;;;;;;;;;;;;5108095;27;1964;-79
2022/06/24 10:08:14;;;;;;;;;;;;;;;;;;5125227;27;1305;-78
2022/06/24 10:10:59;;;;;;;;;;;;;;;;;;5108414;27;1269;-78
2022/06/24 10:13:28;;;;;;;;;;;;;;;;;;5103162;27;1213;-78
2022/06/24 10:15:57;;;;;;;;;;;;;;;;;;5120011;27;1250;-79
2022/06/24 10:18:28;;;;;;;;;;;;;;;;;;5110802;27;1312;-79
2022/06/24 10:20:58;;;;;;;;;;;;;;;;;;5148000;27;828;-79
2022/06/24 10:23:37;;;;;;;;;;;;;;;;;;5128328;27;1189;-78
2022/06/24 10:26:09;;;;;;;;;;;;;;;;;;5130297;27;1909;-79
2022/06/24 10:28:54;;;;;;;;;;;;;;;;;;5125458;27;1229;-78
2022/06/24 10:31:20;;;;;;;;;;;;;;;;;;5128467;27;1067;-77
2022/06/24 10:33:46;;;;;;;;;;;;;;;;;;5147332;27;988;-79
2022/06/24 10:36:17;;;;;;;;;;;;;;;;;;5129170;27;1388;-79
2022/06/24 10:38:42;;;;;;;;;;;;;;;;;;5128771;27;1320;-79
2022/06/24 10:41:11;;;;;;;;;;;;;;;;;;5112006;27;1225;-78
2022/06/24 10:43:41;;;;;;;;;;;;;;;;;;5123826;27;1320;-80
2022/06/24 10:46:13;;;;;;;;;;;;;;;;;;5115731;27;1925;-79
2022/06/24 10:48:48;;;;;;;;;;;;;;;;;;5118148;27;1245;-77
2022/06/24 10:51:17;;;;;;;;;;;;;;;;;;5127554;27;1193;-78
2022/06/24 10:54:01;;;;;;;;;;;;;;;;;;5145856;27;1186;-80
2022/06/24 10:56:42;;;;;;;;;;;;;;;;;;5128480;27;1300;-79
2022/06/24 10:59:08;;;;;;;;;;;;;;;;;;5100146;27;1312;-79
2022/06/24 11:01:33;;;;;;;;;;;;;;;;;;5107434;27;1333;-79
2022/06/24 11:04:04;;;;;;;;;;;;;;;;;;5086953;27;1964;-79
2022/06/24 11:06:29;;;;;;;;;;;;;;;;;;5126400;27;1194;-77
2022/06/24 11:08:54;;;;;;;;;;;;;;;;;;5108363;27;1183;-76
2022/06/24 11:11:27;;;;;;;;;;;;;;;;;;5110684;27;1136;-80
2022/06/24 11:13:56;;;;;;;;;;;;;;;;;;5099395;27;1354;-80
2022/06/24 11:16:25;;;;;;;;;;;;;;;;;;5126944;27;1180;-79
2022/06/24 11:18:50;;;;;;;;;;;;;;;;;;5125837;27;1287;-81
2022/06/24 11:21:18;;;;;;;;;;;;;;;;;;5128558;27;1191;-80
2022/06/24 11:23:46;;;;;;;;;;;;;;;;;;5127281;27;1329;-80
2022/06/24 11:26:21;;;;;;;;;;;;;;;;;;5127375;27;1889;-80
2022/06/24 11:28:56;;;;;;;;;;;;;;;;;;5143586;27;1119;-80
2022/06/24 11:31:25;;;;;;;;;;;;;;;;;;5091235;27;1297;-80
2022/06/24 11:34:03;;;;;;;;;;;;;;;;;;5109884;27;1364;-80
2022/06/24 11:36:28;;;;;;;;;;;;;;;;;;5126535;27;1353;-80
2022/06/24 11:39:03;;;;;;;;;;;;;;;;;;5125708;27;1423;-79
2022/06/24 11:41:29;;;;;;;;;;;;;;;;;;5126059;27;1193;-79
2022/06/24 11:43:57;;;;;;;;;;;;;;;;;;5142079;27;1924;-80
2022/06/24 11:46:23;;;;;;;;;;;;;;;;;;5126960;27;1241;-79
2022/06/24 11:48:48;;;;;;;;;;;;;;;;;;5127267;27;1286;-79
2022/06/24 11:51:21;;;;;;;;;;;;;;;;;;5128868;27;1250;-80
2022/06/24 11:53:57;;;;;;;;;;;;;;;;;;5128223;27;1344;-79
2022/06/24 11:56:23;;;;;;;;;;;;;;;;;;5131604;27;1293;-80
2022/06/24 11:58:54;;;;;;;;;;;;;;;;;;5129530;27;1213;-80
2022/06/24 12:01:21;;;;;;;;;;;;;;;;;;5108726;27;1355;-79
2022/06/24 12:03:47;;;;;;;;;;;;;;;;;;5110062;27;1378;-81
2022/06/24 12:06:12;;;;;;;;;;;;;;;;;;5129882;27;1963;-80
2022/06/24 12:08:38;;;;;;;;;;;;;;;;;;5093174;27;1202;-79
2022/06/24 12:11:12;;;;;;;;;;;;;;;;;;5093160;27;1368;-79
2022/06/24 12:13:37;;;;;;;;;;;;;;;;;;5118776;27;1170;-79
2022/06/24 12:16:03;;;;;;;;;;;;;;;;;;5145701;27;1139;-77
2022/06/24 12:18:29;;;;;;;;;;;;;;;;;;5128438;27;1230;-76
2022/06/24 12:20:56;;;;;;;;;;;;;;;;;;5130456;27;1291;-76
2022/06/24 12:23:31;;;;;;;;;;;;;;;;;;5128132;27;1233;-77
2022/06/24 12:25:56;;;;;;;;;;;;;;;;;;5130406;27;1889;-77
2022/06/24 12:28:23;;;;;;;;;;;;;;;;;;5105377;27;1179;-77
2022/06/24 12:30:54;;;;;;;;;;;;;;;;;;5106379;27;1235;-76
2022/06/24 12:33:20;;;;;;;;;;;;;;;;;;5108342;27;1242;-76
2022/06/24 12:35:45;;;;;;;;;;;;;;;;;;5106635;27;1242;-77
2022/06/24 12:38:14;;;;;;;;;;;;;;;;;;5116100;27;1355;-78
2022/06/24 12:40:40;;;;;;;;;;;;;;;;;;5128134;27;1193;-79
2022/06/24 12:43:06;;;;;;;;;;;;;;;;;;5121638;27;1270;-78
2022/06/24 12:45:37;;;;;;;;;;;;;;;;;;5108555;27;1944;-78
2022/06/24 12:51:01;;;;;;;;;;;;;;;;;;5129140;27;1012;-79
2022/06/24 12:53:30;;;;;;;;;;;;;;;;;;5112135;27;1285;-78
2022/06/24 12:55:56;;;;;;;;;;;;;;;;;;5134426;27;1186;-78
2022/06/24 12:58:21;;;;;;;;;;;;;;;;;;5145065;27;1163;-78
2022/06/24 13:00:47;;;;;;;;;;;;;;;;;;5126491;27;1193;-79
2022/06/24 13:03:15;;;;;;;;;;;;;;;;;;5111760;27;1210;-79
2022/06/24 13:05:40;;;;;;;;;;;;;;;;;;5127293;27;1981;-76
2022/06/24 13:08:06;;;;;;;;;;;;;;;;;;5124276;27;1171;-75
2022/06/24 13:10:31;;;;;;;;;;;;;;;;;;5105779;27;1348;-75
2022/06/24 13:12:57;;;;;;;;;;;;;;;;;;5103510;27;1179;-78
2022/06/24 13:15:23;;;;;;;;;;;;;;;;;;5107487;27;1143;-77
2022/06/24 13:17:49;;;;;;;;;;;;;;;;;;5126926;27;1202;-79
2022/06/24 13:20:14;;;;;;;;;;;;;;;;;;5105716;27;1508;-80
2022/06/24 13:22:40;;;;;;;;;;;;;;;;;;5106057;27;1210;-80
2022/06/24 13:25:06;;;;;;;;;;;;;;;;;;5106828;27;1898;-80
2022/06/24 13:27:32;;;;;;;;;;;;;;;;;;5106482;27;1233;-79
2022/06/24 13:29:58;;;;;;;;;;;;;;;;;;5104540;27;1214;-78
2022/06/24 13:32:23;;;;;;;;;;;;;;;;;;5089295;27;1243;-80
2022/06/24 13:34:49;;;;;;;;;;;;;;;;;;5126156;27;1291;-79
2022/06/24 13:37:14;;;;;;;;;;;;;;;;;;5112002;27;1233;-78
2022/06/24 13:39:39;;;;;;;;;;;;;;;;;;5105500;27;1338;-77
2022/06/24 13:42:05;;;;;;;;;;;;;;;;;;5109015;27;1255;-78
2022/06/24 13:44:33;;;;;;;;;;;;;;;;;;5098301;27;2183;-78
2022/06/24 13:47:00;;;;;;;;;;;;;;;;;;5122402;27;1367;-78
2022/06/24 13:49:25;;;;;;;;;;;;;;;;;;5126595;27;1241;-78
2022/06/24 13:51:50;;;;;;;;;;;;;;;;;;5127697;27;1063;-77
2022/06/24 13:54:15;;;;;;;;;;;;;;;;;;5125872;27;983;-78
2022/06/24 13:56:40;;;;;;;;;;;;;;;;;;5113190;27;1213;-77
2022/06/24 13:59:06;;;;;;;;;;;;;;;;;;5104081;27;1151;-78
2022/06/24 14:01:54;;;;;;;;;;;;;;;;;;5124815;27;1150;-77
2022/06/24 14:04:19;;;;;;;;;;;;;;;;;;5110345;27;1889;-77
2022/06/24 14:06:45;;;;;;;;;;;;;;;;;;5106599;27;1198;-78
2022/06/24 14:09:10;;;;;;;;;;;;;;;;;;5112368;27;1210;-77
2022/06/24 14:11:39;;;;;;;;;;;;;;;;;;5110722;27;1242;-79
2022/06/24 14:14:14;;;;;;;;;;;;;;;;;;5123788;27;1327;-79
2022/06/24 14:16:39;;;;;;;;;;;;;;;;;;5120008;27;1230;-80
2022/06/24 14:19:06;;;;;;;;;;;;;;;;;;5120790;27;1170;-80
2022/06/24 14:21:35;;;;;;;;;;;;;;;;;;5102518;28;1301;-81
2022/06/24 14:26:47;;;;;;;;;;;;;;;;;;5106990;28;629;-82
2022/06/24 14:29:13;;;;;;;;;;;;;;;;;;5084405;28;1187;-84
2022/06/24 14:31:38;;;;;;;;;;;;;;;;;;5088931;28;1215;-81
2022/06/24 14:34:03;;;;;;;;;;;;;;;;;;5090027;28;1305;-82
2022/06/24 14:36:28;;;;;;;;;;;;;;;;;;5106309;28;1175;-81
2022/06/24 14:41:38;;;;;;;;;;;;;;;;;;5108264;28;626;-82
2022/06/24 14:44:12;;;;;;;;;;;;;;;;;;5106219;28;1913;-82
2022/06/24 14:46:41;;;;;;;;;;;;;;;;;;5126801;27;1178;-79
2022/06/24 14:49:06;;;;;;;;;;;;;;;;;;5125392;27;1136;-77
2022/06/24 14:51:32;;;;;;;;;;;;;;;;;;5089837;27;1187;-78
2022/06/24 14:53:58;;;;;;;;;;;;;;;;;;5087842;27;1263;-78
2022/06/24 14:56:23;;;;;;;;;;;;;;;;;;5090757;27;1311;-78
2022/06/24 14:58:56;;;;;;;;;;;;;;;;;;5104320;27;1170;-77
2022/06/24 15:01:21;;;;;;;;;;;;;;;;;;5089001;27;1333;-78
2022/06/24 15:03:47;;;;;;;;;;;;;;;;;;5145074;27;1020;-77
2022/06/24 15:06:12;;;;;;;;;;;;;;;;;;5129753;27;1947;-78
2022/06/24 15:08:43;;;;;;;;;;;;;;;;;;5112040;27;1188;-78
2022/06/24 15:11:08;;;;;;;;;;;;;;;;;;5129215;27;1458;-79
2022/06/24 15:13:33;;;;;;;;;;;;;;;;;;5110440;27;1154;-80
2022/06/24 15:15:59;;;;;;;;;;;;;;;;;;5104172;27;1211;-81
2022/06/24 15:18:24;;;;;;;;;;;;;;;;;;5131882;27;1107;-81
2022/06/24 15:20:49;;;;;;;;;;;;;;;;;;5087259;27;1329;-80
2022/06/24 15:23:15;;;;;;;;;;;;;;;;;;5119203;27;1195;-80
2022/06/24 15:25:41;;;;;;;;;;;;;;;;;;5104552;27;1901;-79
2022/06/24 15:28:06;;;;;;;;;;;;;;;;;;5107257;27;1195;-79
2022/06/24 15:30:32;;;;;;;;;;;;;;;;;;5090980;27;1220;-80
2022/06/24 15:32:58;;;;;;;;;;;;;;;;;;5123657;27;1282;-79
2022/06/24 15:35:23;;;;;;;;;;;;;;;;;;5131997;27;1249;-78
2022/06/24 15:37:49;;;;;;;;;;;;;;;;;;5120701;27;1083;-78
2022/06/24 15:40:14;;;;;;;;;;;;;;;;;;5094543;27;1243;-78
2022/06/24 15:42:44;;;;;;;;;;;;;;;;;;5110578;27;1291;-77
2022/06/24 15:45:09;;;;;;;;;;;;;;;;;;5108656;27;1961;-77
2022/06/24 15:47:35;;;;;;;;;;;;;;;;;;5150817;27;1122;-77
2022/06/24 15:50:01;;;;;;;;;;;;;;;;;;5129650;27;1245;-77
2022/06/24 15:52:26;;;;;;;;;;;;;;;;;;5115255;27;1261;-78
2022/06/24 15:54:52;;;;;;;;;;;;;;;;;;5091335;28;1226;-77
2022/06/24 15:57:17;;;;;;;;;;;;;;;;;;5111269;27;1155;-78
2022/06/24 15:59:45;;;;;;;;;;;;;;;;;;5084699;28;1189;-77
2022/06/24 16:02:11;;;;;;;;;;;;;;;;;;5111518;27;1282;-77
2022/06/24 16:04:36;;;;;;;;;;;;;;;;;;5110042;27;1890;-78
2022/06/24 16:07:01;;;;;;;;;;;;;;;;;;5104555;27;1336;-76
2022/06/24 16:09:26;;;;;;;;;;;;;;;;;;5106830;27;1191;-77
2022/06/24 16:14:36;;;;;;;;;;;;;;;;;;5138228;27;998;-77
2022/06/24 16:17:04;;;;;;;;;;;;;;;;;;5122475;27;1320;-76
2022/06/24 16:19:29;;;;;;;;;;;;;;;;;;5143568;27;1309;-77
2022/06/24 16:22:00;;;;;;;;;;;;;;;;;;5121762;27;1155;-77
2022/06/24 16:24:25;;;;;;;;;;;;;;;;;;5123814;27;1905;-78
2022/06/24 16:29:54;;;;;;;;;;;;;;;;;;5065099;28;1158;-77
2022/06/24 16:32:19;;;;;;;;;;;;;;;;;;5085513;28;1364;-78
2022/06/24 16:34:45;;;;;;;;;;;;;;;;;;5090970;27;1175;-78
2022/06/24 16:37:11;;;;;;;;;;;;;;;;;;5091999;27;1236;-78
2022/06/24 16:39:36;;;;;;;;;;;;;;;;;;5128005;27;1285;-80
2022/06/24 16:42:02;;;;;;;;;;;;;;;;;;5108949;27;1283;-80
2022/06/24 16:44:27;;;;;;;;;;;;;;;;;;5103611;27;1882;-79
2022/06/24 16:46:54;;;;;;;;;;;;;;;;;;5085582;27;1400;-78
2022/06/24 16:49:19;;;;;;;;;;;;;;;;;;5123627;27;1294;-79
2022/06/24 16:51:51;;;;;;;;;;;;;;;;;;5114043;27;1364;-79
2022/06/24 16:54:16;;;;;;;;;;;;;;;;;;5129985;27;1492;-79
2022/06/24 16:56:41;;;;;;;;;;;;;;;;;;5115715;27;1222;-79
2022/06/24 16:59:07;;;;;;;;;;;;;;;;;;5086644;27;1231;-79
2022/06/24 17:01:32;;;;;;;;;;;;;;;;;;5120278;27;1447;-77
2022/06/24 17:03:58;;;;;;;;;;;;;;;;;;5112260;27;1386;-79
2022/06/24 17:06:23;;;;;;;;;;;;;;;;;;5113368;27;1957;-79
2022/06/24 17:08:51;;;;;;;;;;;;;;;;;;5111027;27;1281;-80
2022/06/24 17:11:17;;;;;;;;;;;;;;;;;;5130230;27;1175;-78
2022/06/24 17:13:42;;;;;;;;;;;;;;;;;;5125639;27;1171;-78
2022/06/24 17:16:07;;;;;;;;;;;;;;;;;;5086219;27;1207;-78
2022/06/24 17:18:33;;;;;;;;;;;;;;;;;;5109399;27;1253;-78
2022/06/24 17:20:58;;;;;;;;;;;;;;;;;;5126126;27;1206;-78
2022/06/24 17:23:24;;;;;;;;;;;;;;;;;;5091201;27;1234;-77